sensor_id;sensor_type;location;lat;lon;timestamp;temperature;humidity
10314;DHT22;5202;49.138;10.090;2023-05-10T00:02:09;14.40;99.90
10314;DHT22;5202;49.138;10.090;2023-05-10T00:04:37;14.50;99.90
10314;DHT22;5202;49.138;10.090;2023-05-10T00:07:06;14.30;99.90
10314;DHT22;5202;49.138;10.090;2023-05-10T00:09:35;14.20;99.90
10314;DHT22;5202;49.138;10.090;2023-05-10T00:12:03;14.20;99.90
10314;DHT22;5202;49.138;10.090;2023-05-10T00:14:32;14.20;99.90
10314;DHT22;5202;49.138;10.090;2023-05-10T00:17:00;14.20;99.90
10314;DHT22;5202;49.138;10.090;2023-05-10T00:19:30;14.20;99.90
10314;DHT22;5202;49.138;10.090;2023-05-10T00:21:58;14.20;99.90
10314;DHT22;5202;49.138;10.090;2023-05-10T00:24:27;14.20;99.90
10314;DHT22;5202;49.138;10.090;2023-05-10T00:26:55;14.20;99.90
10314;DHT22;5202;49.138;10.090;2023-05-10T00:29:23;14.20;99.90
10314;DHT22;5202;49.138;10.090;2023-05-10T00:31:52;14.00;99.90
10314;DHT22;5202;49.138;10.090;2023-05-10T00:34:20;13.90;99.90
10314;DHT22;5202;49.138;10.090;2023-05-10T00:36:50;13.70;99.90
10314;DHT22;5202;49.138;10.090;2023-05-10T00:39:18;13.50;99.90
10314;DHT22;5202;49.138;10.090;2023-05-10T00:41:46;13.40;99.90
10314;DHT22;5202;49.138;10.090;2023-05-10T00:44:15;13.40;99.90
10314;DHT22;5202;49.138;10.090;2023-05-10T00:46:45;13.50;99.90
10314;DHT22;5202;49.138;10.090;2023-05-10T00:49:13;13.50;99.90
10314;DHT22;5202;49.138;10.090;2023-05-10T00:51:42;13.40;99.90
10314;DHT22;5202;49.138;10.090;2023-05-10T00:54:14;13.50;99.90
10314;DHT22;5202;49.138;10.090;2023-05-10T00:56:43;13.40;99.90
10314;DHT22;5202;49.138;10.090;2023-05-10T00:59:15;13.40;99.90
10314;DHT22;5202;49.138;10.090;2023-05-10T01:01:45;13.50;99.90
10314;DHT22;5202;49.138;10.090;2023-05-10T01:04:14;13.50;99.90
10314;DHT22;5202;49.138;10.090;2023-05-10T01:06:43;13.50;99.90
10314;DHT22;5202;49.138;10.090;2023-05-10T01:09:12;13.60;99.90
10314;DHT22;5202;49.138;10.090;2023-05-10T01:11:41;13.60;99.90
10314;DHT22;5202;49.138;10.090;2023-05-10T01:14:10;13.50;99.90
10314;DHT22;5202;49.138;10.090;2023-05-10T01:16:42;13.50;99.90
10314;DHT22;5202;49.138;10.090;2023-05-10T01:19:17;13.40;99.90
10314;DHT22;5202;49.138;10.090;2023-05-10T01:21:52;13.40;99.90
10314;DHT22;5202;49.138;10.090;2023-05-10T01:25:11;13.40;99.90
10314;DHT22;5202;49.138;10.090;2023-05-10T01:28:13;13.40;99.90
10314;DHT22;5202;49.138;10.090;2023-05-10T01:31:06;13.30;99.90
10314;DHT22;5202;49.138;10.090;2023-05-10T01:33:46;13.40;99.90
10314;DHT22;5202;49.138;10.090;2023-05-10T01:36:24;13.40;99.90
10314;DHT22;5202;49.138;10.090;2023-05-10T01:39:01;13.50;99.90
10314;DHT22;5202;49.138;10.090;2023-05-10T01:41:39;13.30;99.90
10314;DHT22;5202;49.138;10.090;2023-05-10T01:44:16;13.30;99.90
10314;DHT22;5202;49.138;10.090;2023-05-10T01:46:51;13.30;99.90
10314;DHT22;5202;49.138;10.090;2023-05-10T01:49:26;13.40;99.90
10314;DHT22;5202;49.138;10.090;2023-05-10T01:52:03;13.30;99.90
10314;DHT22;5202;49.138;10.090;2023-05-10T01:54:35;13.30;99.90
10314;DHT22;5202;49.138;10.090;2023-05-10T01:57:08;13.30;99.90
10314;DHT22;5202;49.138;10.090;2023-05-10T01:59:40;13.20;99.90
10314;DHT22;5202;49.138;10.090;2023-05-10T02:02:12;13.10;99.90
10314;DHT22;5202;49.138;10.090;2023-05-10T02:04:43;13.10;99.90
10314;DHT22;5202;49.138;10.090;2023-05-10T02:07:14;13.10;99.90
10314;DHT22;5202;49.138;10.090;2023-05-10T02:09:44;13.00;99.90
10314;DHT22;5202;49.138;10.090;2023-05-10T02:12:15;13.00;99.90
10314;DHT22;5202;49.138;10.090;2023-05-10T02:14:44;13.00;99.90
10314;DHT22;5202;49.138;10.090;2023-05-10T02:17:13;12.90;99.90
10314;DHT22;5202;49.138;10.090;2023-05-10T02:19:44;12.90;99.90
10314;DHT22;5202;49.138;10.090;2023-05-10T02:22:15;12.90;99.90
10314;DHT22;5202;49.138;10.090;2023-05-10T02:25:11;12.80;99.90
10314;DHT22;5202;49.138;10.090;2023-05-10T02:27:42;12.90;99.90
10314;DHT22;5202;49.138;10.090;2023-05-10T02:30:11;12.90;99.90
10314;DHT22;5202;49.138;10.090;2023-05-10T02:32:42;12.80;99.90
10314;DHT22;5202;49.138;10.090;2023-05-10T02:35:14;12.80;99.90
10314;DHT22;5202;49.138;10.090;2023-05-10T02:37:43;12.80;99.90
10314;DHT22;5202;49.138;10.090;2023-05-10T02:40:13;12.90;99.90
10314;DHT22;5202;49.138;10.090;2023-05-10T02:42:44;12.80;99.90
10314;DHT22;5202;49.138;10.090;2023-05-10T02:45:17;12.80;99.90
10314;DHT22;5202;49.138;10.090;2023-05-10T02:47:48;12.80;99.90
10314;DHT22;5202;49.138;10.090;2023-05-10T02:50:18;12.90;99.90
10314;DHT22;5202;49.138;10.090;2023-05-10T02:52:49;12.90;99.90
10314;DHT22;5202;49.138;10.090;2023-05-10T02:55:21;12.80;99.90
10314;DHT22;5202;49.138;10.090;2023-05-10T02:57:52;12.80;99.90
10314;DHT22;5202;49.138;10.090;2023-05-10T03:00:25;12.80;99.90
10314;DHT22;5202;49.138;10.090;2023-05-10T03:02:54;12.70;99.90
10314;DHT22;5202;49.138;10.090;2023-05-10T03:05:24;12.70;99.90
10314;DHT22;5202;49.138;10.090;2023-05-10T03:07:52;12.70;99.90
10314;DHT22;5202;49.138;10.090;2023-05-10T03:10:22;12.70;99.90
10314;DHT22;5202;49.138;10.090;2023-05-10T03:13:05;12.80;99.90
10314;DHT22;5202;49.138;10.090;2023-05-10T03:15:44;12.60;99.90
10314;DHT22;5202;49.138;10.090;2023-05-10T03:18:20;12.70;99.90
10314;DHT22;5202;49.138;10.090;2023-05-10T03:20:59;12.60;99.90
10314;DHT22;5202;49.138;10.090;2023-05-10T03:23:35;12.60;99.90
10314;DHT22;5202;49.138;10.090;2023-05-10T03:26:04;12.60;99.90
10314;DHT22;5202;49.138;10.090;2023-05-10T03:28:34;12.50;99.90
10314;DHT22;5202;49.138;10.090;2023-05-10T03:31:04;12.40;99.90
10314;DHT22;5202;49.138;10.090;2023-05-10T03:33:34;12.30;99.90
10314;DHT22;5202;49.138;10.090;2023-05-10T03:36:04;12.20;99.90
10314;DHT22;5202;49.138;10.090;2023-05-10T03:38:32;12.20;99.90
10314;DHT22;5202;49.138;10.090;2023-05-10T03:41:01;12.20;99.90
10314;DHT22;5202;49.138;10.090;2023-05-10T03:43:29;12.10;99.90
10314;DHT22;5202;49.138;10.090;2023-05-10T03:45:57;12.10;99.90
10314;DHT22;5202;49.138;10.090;2023-05-10T03:48:26;12.20;99.90
10314;DHT22;5202;49.138;10.090;2023-05-10T03:50:54;12.10;99.90
10314;DHT22;5202;49.138;10.090;2023-05-10T03:53:24;12.10;99.90
10314;DHT22;5202;49.138;10.090;2023-05-10T03:55:53;12.00;99.90
10314;DHT22;5202;49.138;10.090;2023-05-10T03:58:22;12.00;99.90
10314;DHT22;5202;49.138;10.090;2023-05-10T04:00:51;11.90;99.90
10314;DHT22;5202;49.138;10.090;2023-05-10T04:03:20;11.90;99.90
10314;DHT22;5202;49.138;10.090;2023-05-10T04:05:48;11.90;99.90
10314;DHT22;5202;49.138;10.090;2023-05-10T04:08:21;11.90;99.90
10314;DHT22;5202;49.138;10.090;2023-05-10T04:10:52;11.90;99.90
10314;DHT22;5202;49.138;10.090;2023-05-10T04:13:21;11.90;99.90
10314;DHT22;5202;49.138;10.090;2023-05-10T04:15:51;11.90;99.90
10314;DHT22;5202;49.138;10.090;2023-05-10T04:18:26;11.90;99.90
10314;DHT22;5202;49.138;10.090;2023-05-10T04:20:54;11.90;99.90
10314;DHT22;5202;49.138;10.090;2023-05-10T04:23:22;11.90;99.90
10314;DHT22;5202;49.138;10.090;2023-05-10T04:25:59;11.90;99.90
10314;DHT22;5202;49.138;10.090;2023-05-10T04:28:29;11.90;99.90
10314;DHT22;5202;49.138;10.090;2023-05-10T04:31:02;11.80;99.90
10314;DHT22;5202;49.138;10.090;2023-05-10T04:33:32;11.80;99.90
10314;DHT22;5202;49.138;10.090;2023-05-10T04:36:02;11.80;99.90
10314;DHT22;5202;49.138;10.090;2023-05-10T04:38:31;11.80;99.90
10314;DHT22;5202;49.138;10.090;2023-05-10T04:41:06;11.80;99.90
10314;DHT22;5202;49.138;10.090;2023-05-10T04:43:40;11.80;99.90
10314;DHT22;5202;49.138;10.090;2023-05-10T04:46:09;11.80;99.90
10314;DHT22;5202;49.138;10.090;2023-05-10T04:48:41;11.80;99.90
10314;DHT22;5202;49.138;10.090;2023-05-10T04:51:12;11.80;99.90
10314;DHT22;5202;49.138;10.090;2023-05-10T04:53:41;11.80;99.90
10314;DHT22;5202;49.138;10.090;2023-05-10T04:56:25;11.80;99.90
10314;DHT22;5202;49.138;10.090;2023-05-10T04:58:54;11.80;99.90
10314;DHT22;5202;49.138;10.090;2023-05-10T05:01:24;11.80;99.90
10314;DHT22;5202;49.138;10.090;2023-05-10T05:03:54;11.80;99.90
10314;DHT22;5202;49.138;10.090;2023-05-10T05:06:24;11.90;99.90
10314;DHT22;5202;49.138;10.090;2023-05-10T05:08:55;11.90;99.90
10314;DHT22;5202;49.138;10.090;2023-05-10T05:11:28;12.00;99.90
10314;DHT22;5202;49.138;10.090;2023-05-10T05:13:57;12.00;99.90
10314;DHT22;5202;49.138;10.090;2023-05-10T05:16:27;12.00;99.90
10314;DHT22;5202;49.138;10.090;2023-05-10T05:18:59;12.00;99.90
10314;DHT22;5202;49.138;10.090;2023-05-10T05:21:28;12.00;99.90
10314;DHT22;5202;49.138;10.090;2023-05-10T05:23:56;12.00;99.90
10314;DHT22;5202;49.138;10.090;2023-05-10T05:26:27;12.00;99.90
10314;DHT22;5202;49.138;10.090;2023-05-10T05:28:55;11.90;99.90
10314;DHT22;5202;49.138;10.090;2023-05-10T05:31:24;11.90;99.90
10314;DHT22;5202;49.138;10.090;2023-05-10T05:33:52;11.90;99.90
10314;DHT22;5202;49.138;10.090;2023-05-10T05:36:21;11.90;99.90
10314;DHT22;5202;49.138;10.090;2023-05-10T05:38:50;11.90;99.90
10314;DHT22;5202;49.138;10.090;2023-05-10T05:41:18;12.00;99.90
10314;DHT22;5202;49.138;10.090;2023-05-10T05:43:48;11.90;99.90
10314;DHT22;5202;49.138;10.090;2023-05-10T05:46:16;11.90;99.90
10314;DHT22;5202;49.138;10.090;2023-05-10T05:48:45;11.90;99.90
10314;DHT22;5202;49.138;10.090;2023-05-10T05:51:13;12.00;99.90
10314;DHT22;5202;49.138;10.090;2023-05-10T05:53:41;12.00;99.90
10314;DHT22;5202;49.138;10.090;2023-05-10T05:56:10;12.10;99.90
10314;DHT22;5202;49.138;10.090;2023-05-10T05:58:38;12.10;99.90
10314;DHT22;5202;49.138;10.090;2023-05-10T06:01:08;12.20;99.90
10314;DHT22;5202;49.138;10.090;2023-05-10T06:03:37;12.20;99.90
10314;DHT22;5202;49.138;10.090;2023-05-10T06:06:05;12.20;99.90
10314;DHT22;5202;49.138;10.090;2023-05-10T06:08:34;12.20;99.90
10314;DHT22;5202;49.138;10.090;2023-05-10T06:11:02;12.20;99.90
10314;DHT22;5202;49.138;10.090;2023-05-10T06:13:31;12.20;99.90
10314;DHT22;5202;49.138;10.090;2023-05-10T06:16:02;12.10;99.90
10314;DHT22;5202;49.138;10.090;2023-05-10T06:18:39;12.10;99.90
10314;DHT22;5202;49.138;10.090;2023-05-10T06:21:08;12.10;99.90
10314;DHT22;5202;49.138;10.090;2023-05-10T06:23:37;12.10;99.90
10314;DHT22;5202;49.138;10.090;2023-05-10T06:26:05;12.10;99.90
10314;DHT22;5202;49.138;10.090;2023-05-10T06:28:34;12.20;99.90
10314;DHT22;5202;49.138;10.090;2023-05-10T06:31:05;12.20;99.90
10314;DHT22;5202;49.138;10.090;2023-05-10T06:33:34;12.20;99.90
10314;DHT22;5202;49.138;10.090;2023-05-10T06:36:04;12.30;99.90
10314;DHT22;5202;49.138;10.090;2023-05-10T06:38:32;12.20;99.90
10314;DHT22;5202;49.138;10.090;2023-05-10T06:41:01;12.30;99.90
10314;DHT22;5202;49.138;10.090;2023-05-10T06:43:29;12.30;99.90
10314;DHT22;5202;49.138;10.090;2023-05-10T06:45:57;12.30;99.90
10314;DHT22;5202;49.138;10.090;2023-05-10T06:48:26;12.40;99.90
10314;DHT22;5202;49.138;10.090;2023-05-10T06:50:54;12.40;99.90
10314;DHT22;5202;49.138;10.090;2023-05-10T06:53:25;12.40;99.90
10314;DHT22;5202;49.138;10.090;2023-05-10T06:55:53;12.40;99.90
10314;DHT22;5202;49.138;10.090;2023-05-10T06:58:21;12.40;99.90
10314;DHT22;5202;49.138;10.090;2023-05-10T07:00:50;12.60;99.90
10314;DHT22;5202;49.138;10.090;2023-05-10T07:03:18;12.60;99.90
10314;DHT22;5202;49.138;10.090;2023-05-10T07:05:47;12.60;99.90
10314;DHT22;5202;49.138;10.090;2023-05-10T07:08:15;12.50;99.90
10314;DHT22;5202;49.138;10.090;2023-05-10T07:10:45;12.50;99.90
10314;DHT22;5202;49.138;10.090;2023-05-10T07:13:13;12.50;99.90
10314;DHT22;5202;49.138;10.090;2023-05-10T07:15:41;12.60;99.90
10314;DHT22;5202;49.138;10.090;2023-05-10T07:18:10;12.60;99.90
10314;DHT22;5202;49.138;10.090;2023-05-10T07:20:38;12.70;99.90
10314;DHT22;5202;49.138;10.090;2023-05-10T07:23:06;12.80;99.90
10314;DHT22;5202;49.138;10.090;2023-05-10T07:25:35;12.90;99.90
10314;DHT22;5202;49.138;10.090;2023-05-10T07:28:05;13.00;99.90
10314;DHT22;5202;49.138;10.090;2023-05-10T07:30:33;13.00;99.90
10314;DHT22;5202;49.138;10.090;2023-05-10T07:33:02;13.00;99.90
10314;DHT22;5202;49.138;10.090;2023-05-10T07:35:30;13.00;99.90
10314;DHT22;5202;49.138;10.090;2023-05-10T07:37:59;13.00;99.90
10314;DHT22;5202;49.138;10.090;2023-05-10T07:40:28;13.00;99.90
10314;DHT22;5202;49.138;10.090;2023-05-10T07:42:57;13.10;99.90
10314;DHT22;5202;49.138;10.090;2023-05-10T07:45:28;13.10;99.90
10314;DHT22;5202;49.138;10.090;2023-05-10T07:47:56;13.20;99.90
10314;DHT22;5202;49.138;10.090;2023-05-10T07:50:25;13.20;99.90
10314;DHT22;5202;49.138;10.090;2023-05-10T07:52:53;13.30;99.90
10314;DHT22;5202;49.138;10.090;2023-05-10T07:55:22;13.40;99.90
10314;DHT22;5202;49.138;10.090;2023-05-10T07:57:50;13.40;99.90
10314;DHT22;5202;49.138;10.090;2023-05-10T08:00:19;13.30;99.90
10314;DHT22;5202;49.138;10.090;2023-05-10T08:02:49;13.40;99.90
10314;DHT22;5202;49.138;10.090;2023-05-10T08:05:18;13.40;99.90
10314;DHT22;5202;49.138;10.090;2023-05-10T08:07:48;13.50;99.90
10314;DHT22;5202;49.138;10.090;2023-05-10T08:10:16;13.60;99.90
10314;DHT22;5202;49.138;10.090;2023-05-10T08:12:44;13.70;99.90
10314;DHT22;5202;49.138;10.090;2023-05-10T08:15:13;13.70;99.90
10314;DHT22;5202;49.138;10.090;2023-05-10T08:17:42;13.70;99.90
10314;DHT22;5202;49.138;10.090;2023-05-10T08:20:12;13.80;99.90
10314;DHT22;5202;49.138;10.090;2023-05-10T08:22:43;13.80;99.90
10314;DHT22;5202;49.138;10.090;2023-05-10T08:25:14;13.60;99.90
10314;DHT22;5202;49.138;10.090;2023-05-10T08:27:43;13.70;99.90
10314;DHT22;5202;49.138;10.090;2023-05-10T08:30:12;13.80;99.90
10314;DHT22;5202;49.138;10.090;2023-05-10T08:32:40;13.90;99.90
10314;DHT22;5202;49.138;10.090;2023-05-10T08:35:09;14.10;99.90
10314;DHT22;5202;49.138;10.090;2023-05-10T08:37:38;14.20;99.90
10314;DHT22;5202;49.138;10.090;2023-05-10T08:40:09;14.30;99.90
10314;DHT22;5202;49.138;10.090;2023-05-10T08:42:42;14.40;99.90
10314;DHT22;5202;49.138;10.090;2023-05-10T08:45:11;14.40;99.90
10314;DHT22;5202;49.138;10.090;2023-05-10T08:47:40;14.40;99.90
10314;DHT22;5202;49.138;10.090;2023-05-10T08:50:10;14.30;99.90
10314;DHT22;5202;49.138;10.090;2023-05-10T08:52:40;14.20;99.90
10314;DHT22;5202;49.138;10.090;2023-05-10T08:55:10;14.40;99.90
10314;DHT22;5202;49.138;10.090;2023-05-10T08:57:44;14.40;99.90
10314;DHT22;5202;49.138;10.090;2023-05-10T09:00:13;14.30;99.90
10314;DHT22;5202;49.138;10.090;2023-05-10T09:02:43;14.30;99.90
10314;DHT22;5202;49.138;10.090;2023-05-10T09:05:12;14.20;99.90
10314;DHT22;5202;49.138;10.090;2023-05-10T09:07:44;14.10;99.90
10314;DHT22;5202;49.138;10.090;2023-05-10T09:10:13;13.90;99.90
10314;DHT22;5202;49.138;10.090;2023-05-10T09:12:44;13.70;99.90
10314;DHT22;5202;49.138;10.090;2023-05-10T09:15:15;13.70;99.90
10314;DHT22;5202;49.138;10.090;2023-05-10T09:17:46;13.60;99.90
10314;DHT22;5202;49.138;10.090;2023-05-10T09:20:15;13.60;99.90
10314;DHT22;5202;49.138;10.090;2023-05-10T09:22:45;13.60;99.90
10314;DHT22;5202;49.138;10.090;2023-05-10T09:25:15;13.70;99.90
10314;DHT22;5202;49.138;10.090;2023-05-10T09:27:47;13.80;99.90
10314;DHT22;5202;49.138;10.090;2023-05-10T09:30:17;13.80;99.90
10314;DHT22;5202;49.138;10.090;2023-05-10T09:32:47;13.80;99.90
10314;DHT22;5202;49.138;10.090;2023-05-10T09:35:18;13.80;99.90
10314;DHT22;5202;49.138;10.090;2023-05-10T09:37:49;13.90;99.90
10314;DHT22;5202;49.138;10.090;2023-05-10T09:40:19;14.00;99.90
10314;DHT22;5202;49.138;10.090;2023-05-10T09:42:54;14.10;99.90
10314;DHT22;5202;49.138;10.090;2023-05-10T09:45:26;14.10;99.90
10314;DHT22;5202;49.138;10.090;2023-05-10T09:47:55;14.20;99.90
10314;DHT22;5202;49.138;10.090;2023-05-10T09:50:24;14.20;99.90
10314;DHT22;5202;49.138;10.090;2023-05-10T09:52:56;14.30;99.90
10314;DHT22;5202;49.138;10.090;2023-05-10T09:55:38;14.40;99.90
10314;DHT22;5202;49.138;10.090;2023-05-10T09:58:07;14.40;99.90
10314;DHT22;5202;49.138;10.090;2023-05-10T10:00:39;14.60;99.90
10314;DHT22;5202;49.138;10.090;2023-05-10T10:03:12;14.60;99.90
10314;DHT22;5202;49.138;10.090;2023-05-10T10:06:08;14.60;99.90
10314;DHT22;5202;49.138;10.090;2023-05-10T10:08:57;14.70;99.90
10314;DHT22;5202;49.138;10.090;2023-05-10T10:11:25;14.70;99.90
10314;DHT22;5202;49.138;10.090;2023-05-10T10:13:54;14.80;99.90
10314;DHT22;5202;49.138;10.090;2023-05-10T10:16:23;14.90;99.90
10314;DHT22;5202;49.138;10.090;2023-05-10T10:18:53;15.00;99.90
10314;DHT22;5202;49.138;10.090;2023-05-10T10:21:22;15.00;99.90
10314;DHT22;5202;49.138;10.090;2023-05-10T10:23:51;14.90;99.90
10314;DHT22;5202;49.138;10.090;2023-05-10T10:26:22;14.90;99.90
10314;DHT22;5202;49.138;10.090;2023-05-10T10:29:00;14.90;99.90
10314;DHT22;5202;49.138;10.090;2023-05-10T10:31:39;14.90;99.90
10314;DHT22;5202;49.138;10.090;2023-05-10T10:34:10;14.80;99.90
10314;DHT22;5202;49.138;10.090;2023-05-10T10:36:46;14.80;99.90
10314;DHT22;5202;49.138;10.090;2023-05-10T10:39:15;14.80;99.90
10314;DHT22;5202;49.138;10.090;2023-05-10T10:41:51;14.80;99.90
10314;DHT22;5202;49.138;10.090;2023-05-10T10:44:37;14.90;99.90
10314;DHT22;5202;49.138;10.090;2023-05-10T10:47:10;14.80;99.90
10314;DHT22;5202;49.138;10.090;2023-05-10T10:50:01;14.80;99.90
10314;DHT22;5202;49.138;10.090;2023-05-10T10:52:32;14.60;99.90
10314;DHT22;5202;49.138;10.090;2023-05-10T10:55:03;14.40;99.90
10314;DHT22;5202;49.138;10.090;2023-05-10T10:57:44;14.40;99.90
10314;DHT22;5202;49.138;10.090;2023-05-10T11:00:24;14.40;99.90
10314;DHT22;5202;49.138;10.090;2023-05-10T11:02:57;14.50;99.90
10314;DHT22;5202;49.138;10.090;2023-05-10T11:05:38;14.60;99.90
10314;DHT22;5202;49.138;10.090;2023-05-10T11:08:11;14.60;99.90
10314;DHT22;5202;49.138;10.090;2023-05-10T11:10:52;14.50;99.90
10314;DHT22;5202;49.138;10.090;2023-05-10T11:13:30;14.50;99.90
10314;DHT22;5202;49.138;10.090;2023-05-10T11:16:13;14.60;99.90
10314;DHT22;5202;49.138;10.090;2023-05-10T11:19:07;14.70;99.90
10314;DHT22;5202;49.138;10.090;2023-05-10T11:21:45;14.80;99.90
10314;DHT22;5202;49.138;10.090;2023-05-10T11:24:16;14.90;99.90
10314;DHT22;5202;49.138;10.090;2023-05-10T11:26:46;14.90;99.90
10314;DHT22;5202;49.138;10.090;2023-05-10T11:29:19;14.80;99.90
10314;DHT22;5202;49.138;10.090;2023-05-10T11:31:49;14.80;99.90
10314;DHT22;5202;49.138;10.090;2023-05-10T11:34:24;14.80;99.90
10314;DHT22;5202;49.138;10.090;2023-05-10T11:36:54;14.90;99.90
10314;DHT22;5202;49.138;10.090;2023-05-10T11:39:26;15.00;99.90
10314;DHT22;5202;49.138;10.090;2023-05-10T11:41:55;15.20;99.90
10314;DHT22;5202;49.138;10.090;2023-05-10T11:44:29;15.30;99.90
10314;DHT22;5202;49.138;10.090;2023-05-10T11:47:00;15.30;99.90
10314;DHT22;5202;49.138;10.090;2023-05-10T11:49:31;15.20;99.90
10314;DHT22;5202;49.138;10.090;2023-05-10T11:52:14;15.20;99.90
10314;DHT22;5202;49.138;10.090;2023-05-10T11:54:51;15.10;99.90
10314;DHT22;5202;49.138;10.090;2023-05-10T11:57:27;15.10;99.90
10314;DHT22;5202;49.138;10.090;2023-05-10T12:00:00;15.20;99.90
10314;DHT22;5202;49.138;10.090;2023-05-10T12:02:34;15.20;99.90
10314;DHT22;5202;49.138;10.090;2023-05-10T12:05:10;15.30;99.90
10314;DHT22;5202;49.138;10.090;2023-05-10T12:07:50;15.40;99.90
10314;DHT22;5202;49.138;10.090;2023-05-10T12:10:26;15.30;99.90
10314;DHT22;5202;49.138;10.090;2023-05-10T12:13:01;15.20;99.90
10314;DHT22;5202;49.138;10.090;2023-05-10T12:15:34;15.10;99.90
10314;DHT22;5202;49.138;10.090;2023-05-10T12:18:08;15.10;99.90
10314;DHT22;5202;49.138;10.090;2023-05-10T12:20:41;15.00;99.90
10314;DHT22;5202;49.138;10.090;2023-05-10T12:23:15;14.80;99.90
10314;DHT22;5202;49.138;10.090;2023-05-10T12:25:48;14.70;99.90
10314;DHT22;5202;49.138;10.090;2023-05-10T12:28:34;14.70;99.90
10314;DHT22;5202;49.138;10.090;2023-05-10T12:31:12;14.70;99.90
10314;DHT22;5202;49.138;10.090;2023-05-10T12:33:44;14.70;99.90
10314;DHT22;5202;49.138;10.090;2023-05-10T12:36:24;14.80;99.90
10314;DHT22;5202;49.138;10.090;2023-05-10T12:39:02;14.80;99.90
10314;DHT22;5202;49.138;10.090;2023-05-10T12:41:38;14.80;99.90
10314;DHT22;5202;49.138;10.090;2023-05-10T12:44:12;14.90;99.90
10314;DHT22;5202;49.138;10.090;2023-05-10T12:46:50;14.90;99.90
10314;DHT22;5202;49.138;10.090;2023-05-10T12:49:26;15.00;99.90
10314;DHT22;5202;49.138;10.090;2023-05-10T12:51:58;15.00;99.90
10314;DHT22;5202;49.138;10.090;2023-05-10T12:54:33;15.00;99.90
10314;DHT22;5202;49.138;10.090;2023-05-10T12:57:07;15.10;99.90
10314;DHT22;5202;49.138;10.090;2023-05-10T12:59:41;15.20;99.90
10314;DHT22;5202;49.138;10.090;2023-05-10T13:02:20;15.30;99.90
10314;DHT22;5202;49.138;10.090;2023-05-10T13:04:58;15.30;99.20
10314;DHT22;5202;49.138;10.090;2023-05-10T13:07:38;15.40;99.60
10314;DHT22;5202;49.138;10.090;2023-05-10T13:10:12;15.40;99.80
10314;DHT22;5202;49.138;10.090;2023-05-10T13:12:44;15.40;99.90
10314;DHT22;5202;49.138;10.090;2023-05-10T13:15:23;15.50;99.80
10314;DHT22;5202;49.138;10.090;2023-05-10T13:18:03;15.30;99.90
10314;DHT22;5202;49.138;10.090;2023-05-10T13:20:39;15.20;99.90
10314;DHT22;5202;49.138;10.090;2023-05-10T13:23:13;15.10;99.90
10314;DHT22;5202;49.138;10.090;2023-05-10T13:25:47;15.10;99.90
10314;DHT22;5202;49.138;10.090;2023-05-10T13:28:21;15.20;99.90
10314;DHT22;5202;49.138;10.090;2023-05-10T13:30:54;15.30;99.90
10314;DHT22;5202;49.138;10.090;2023-05-10T13:33:27;15.30;99.90
10314;DHT22;5202;49.138;10.090;2023-05-10T13:35:59;15.10;99.90
10314;DHT22;5202;49.138;10.090;2023-05-10T13:38:33;15.00;99.90
10314;DHT22;5202;49.138;10.090;2023-05-10T13:41:07;15.00;99.90
10314;DHT22;5202;49.138;10.090;2023-05-10T13:43:42;14.90;99.90
10314;DHT22;5202;49.138;10.090;2023-05-10T13:46:25;14.90;99.90
10314;DHT22;5202;49.138;10.090;2023-05-10T13:49:03;14.90;99.90
10314;DHT22;5202;49.138;10.090;2023-05-10T13:51:46;15.00;99.90
10314;DHT22;5202;49.138;10.090;2023-05-10T13:54:29;15.00;99.90
10314;DHT22;5202;49.138;10.090;2023-05-10T13:57:10;14.90;99.30
10314;DHT22;5202;49.138;10.090;2023-05-10T13:59:56;14.80;99.40
10314;DHT22;5202;49.138;10.090;2023-05-10T14:02:38;14.80;99.50
10314;DHT22;5202;49.138;10.090;2023-05-10T14:05:17;14.80;99.50
10314;DHT22;5202;49.138;10.090;2023-05-10T14:07:59;14.70;99.20
10314;DHT22;5202;49.138;10.090;2023-05-10T14:10:41;14.50;99.60
10314;DHT22;5202;49.138;10.090;2023-05-10T14:13:19;14.40;99.90
10314;DHT22;5202;49.138;10.090;2023-05-10T14:15:57;14.50;99.90
10314;DHT22;5202;49.138;10.090;2023-05-10T14:18:37;14.50;99.90
10314;DHT22;5202;49.138;10.090;2023-05-10T14:21:18;14.50;99.90
10314;DHT22;5202;49.138;10.090;2023-05-10T14:24:09;14.60;99.90
10314;DHT22;5202;49.138;10.090;2023-05-10T14:26:53;14.60;99.90
10314;DHT22;5202;49.138;10.090;2023-05-10T14:29:42;14.60;99.90
10314;DHT22;5202;49.138;10.090;2023-05-10T14:32:26;14.50;99.90
10314;DHT22;5202;49.138;10.090;2023-05-10T14:35:01;14.50;99.90
10314;DHT22;5202;49.138;10.090;2023-05-10T14:37:42;14.50;99.90
10314;DHT22;5202;49.138;10.090;2023-05-10T14:40:28;14.50;99.90
10314;DHT22;5202;49.138;10.090;2023-05-10T14:43:05;14.50;99.90
10314;DHT22;5202;49.138;10.090;2023-05-10T14:45:41;14.40;99.90
10314;DHT22;5202;49.138;10.090;2023-05-10T14:48:13;14.40;99.90
10314;DHT22;5202;49.138;10.090;2023-05-10T14:50:46;14.40;99.90
10314;DHT22;5202;49.138;10.090;2023-05-10T14:53:25;14.40;99.90
10314;DHT22;5202;49.138;10.090;2023-05-10T14:55:59;14.30;99.90
10314;DHT22;5202;49.138;10.090;2023-05-10T14:58:41;14.30;99.90
10314;DHT22;5202;49.138;10.090;2023-05-10T15:01:28;14.30;99.90
10314;DHT22;5202;49.138;10.090;2023-05-10T15:04:06;14.20;99.90
10314;DHT22;5202;49.138;10.090;2023-05-10T15:06:46;14.20;99.90
10314;DHT22;5202;49.138;10.090;2023-05-10T15:09:25;14.40;99.90
10314;DHT22;5202;49.138;10.090;2023-05-10T15:11:59;14.40;99.90
10314;DHT22;5202;49.138;10.090;2023-05-10T15:14:31;14.50;99.90
10314;DHT22;5202;49.138;10.090;2023-05-10T15:17:11;14.50;99.90
10314;DHT22;5202;49.138;10.090;2023-05-10T15:19:42;14.60;99.90
10314;DHT22;5202;49.138;10.090;2023-05-10T15:22:13;14.50;99.90
10314;DHT22;5202;49.138;10.090;2023-05-10T15:24:51;14.50;99.90
10314;DHT22;5202;49.138;10.090;2023-05-10T15:27:26;14.50;99.90
10314;DHT22;5202;49.138;10.090;2023-05-10T15:29:58;14.50;99.90
10314;DHT22;5202;49.138;10.090;2023-05-10T15:32:42;14.60;99.90
10314;DHT22;5202;49.138;10.090;2023-05-10T15:35:18;14.60;99.90
10314;DHT22;5202;49.138;10.090;2023-05-10T15:37:53;14.60;99.90
10314;DHT22;5202;49.138;10.090;2023-05-10T15:40:29;14.70;99.90
10314;DHT22;5202;49.138;10.090;2023-05-10T15:43:05;14.70;99.90
10314;DHT22;5202;49.138;10.090;2023-05-10T15:45:40;14.80;99.90
10314;DHT22;5202;49.138;10.090;2023-05-10T15:48:17;14.80;99.90
10314;DHT22;5202;49.138;10.090;2023-05-10T15:50:53;14.70;99.90
10314;DHT22;5202;49.138;10.090;2023-05-10T15:53:27;14.70;99.90
10314;DHT22;5202;49.138;10.090;2023-05-10T15:56:23;14.70;99.90
10314;DHT22;5202;49.138;10.090;2023-05-10T15:58:56;14.70;99.90
10314;DHT22;5202;49.138;10.090;2023-05-10T16:04:55;14.80;99.90
10314;DHT22;5202;49.138;10.090;2023-05-10T16:07:48;14.70;99.90
10314;DHT22;5202;49.138;10.090;2023-05-10T16:10:31;14.70;99.90